createdAt,value
2018-05-25T00:02:02.061Z,14.40
2018-05-25T00:04:29.608Z,14.50
2018-05-25T00:06:57.170Z,14.50
2018-05-25T00:09:24.689Z,14.50
2018-05-25T00:11:52.265Z,14.40
2018-05-25T00:14:19.842Z,14.40
2018-05-25T00:16:47.381Z,14.30
2018-05-25T00:19:14.981Z,14.30
2018-05-25T00:21:42.540Z,14.20
2018-05-25T00:24:10.164Z,14.20
2018-05-25T00:26:37.733Z,14.20
2018-05-25T00:29:05.362Z,14.10
2018-05-25T00:31:32.932Z,14.10
2018-05-25T00:34:00.528Z,14.00
2018-05-25T00:36:28.069Z,14.00
2018-05-25T00:38:55.711Z,14.00
2018-05-25T00:41:23.263Z,14.00
2018-05-25T00:43:50.892Z,14.00
2018-05-25T00:46:18.465Z,14.00
2018-05-25T00:48:46.042Z,14.00
2018-05-25T00:51:13.599Z,13.90
2018-05-25T00:53:41.478Z,13.80
2018-05-25T00:56:09.042Z,13.80
2018-05-25T00:58:36.648Z,13.70
2018-05-25T01:01:04.591Z,13.60
2018-05-25T01:03:32.144Z,13.60
2018-05-25T01:05:59.701Z,13.70
2018-05-25T01:08:27.302Z,13.70
2018-05-25T01:10:54.902Z,13.70
2018-05-25T01:13:22.526Z,13.70
2018-05-25T01:15:50.102Z,13.70
2018-05-25T01:18:17.653Z,13.70
2018-05-25T01:20:45.228Z,13.70
2018-05-25T01:23:12.781Z,13.60
2018-05-25T01:25:40.399Z,13.50
2018-05-25T01:28:07.956Z,13.50
2018-05-25T01:30:35.541Z,13.40
2018-05-25T01:33:03.089Z,13.40
2018-05-25T01:35:30.638Z,13.30
2018-05-25T01:37:58.187Z,13.30
2018-05-25T01:40:25.829Z,13.20
2018-05-25T01:42:53.427Z,13.20
2018-05-25T01:45:21.030Z,13.20
2018-05-25T01:47:48.613Z,13.20
2018-05-25T01:50:16.645Z,13.20
2018-05-25T01:52:44.196Z,13.20
2018-05-25T01:55:11.771Z,13.20
2018-05-25T01:57:39.326Z,13.10
2018-05-25T02:00:06.966Z,13.10
2018-05-25T02:02:34.557Z,13.10
2018-05-25T02:05:02.121Z,13.00
2018-05-25T02:07:29.706Z,13.00
2018-05-25T02:09:57.639Z,12.90
2018-05-25T02:12:25.187Z,12.90
2018-05-25T02:14:52.782Z,12.80
2018-05-25T02:17:20.779Z,12.70
2018-05-25T02:19:48.358Z,12.70
2018-05-25T02:22:15.933Z,12.70
2018-05-25T02:24:43.511Z,12.70
2018-05-25T02:27:11.104Z,12.70
2018-05-25T02:29:38.706Z,12.70
2018-05-25T02:32:06.281Z,12.70
2018-05-25T02:34:33.874Z,12.70
2018-05-25T02:37:01.453Z,12.60
2018-05-25T02:39:29.005Z,12.60
2018-05-25T02:41:56.671Z,12.60
2018-05-25T02:44:24.216Z,12.60
2018-05-25T02:46:51.778Z,12.60
2018-05-25T02:49:19.323Z,12.60
2018-05-25T02:51:46.916Z,12.60
2018-05-25T02:54:14.465Z,12.60
2018-05-25T02:56:42.049Z,12.60
2018-05-25T02:59:09.595Z,12.60
2018-05-25T03:01:37.184Z,12.60
2018-05-25T03:04:04.742Z,12.50
2018-05-25T03:06:32.290Z,12.40
2018-05-25T03:08:59.825Z,12.40
2018-05-25T03:11:27.435Z,12.30
2018-05-25T03:13:55.028Z,12.20
2018-05-25T03:16:22.613Z,12.20
2018-05-25T03:18:50.232Z,12.20
2018-05-25T03:21:17.811Z,12.20
2018-05-25T03:23:45.342Z,12.20
2018-05-25T03:26:12.987Z,12.10
2018-05-25T03:28:40.494Z,12.00
2018-05-25T03:31:08.090Z,12.00
2018-05-25T03:33:35.638Z,12.10
2018-05-25T03:36:03.267Z,12.00
2018-05-25T03:38:30.826Z,12.00
2018-05-25T03:40:58.486Z,11.90
2018-05-25T03:43:26.044Z,12.00
2018-05-25T03:45:53.627Z,12.00
2018-05-25T03:48:21.266Z,12.00
2018-05-25T03:50:48.823Z,11.90
2018-05-25T03:53:16.462Z,11.90
2018-05-25T03:55:44.016Z,11.80
2018-05-25T03:58:11.628Z,11.80
2018-05-25T04:00:50.899Z,11.80
2018-05-25T04:03:18.484Z,11.80
2018-05-25T04:05:46.931Z,11.70
2018-05-25T04:08:14.528Z,11.70
2018-05-25T04:10:42.083Z,11.70
2018-05-25T04:13:09.639Z,11.80
2018-05-25T04:15:37.214Z,11.80
2018-05-25T04:18:04.827Z,11.80
2018-05-25T04:20:32.394Z,11.90
2018-05-25T04:23:00.011Z,12.00
2018-05-25T04:25:27.637Z,12.10
2018-05-25T04:27:55.261Z,12.20
2018-05-25T04:30:23.224Z,12.50
2018-05-25T04:32:50.807Z,12.50
2018-05-25T04:35:18.363Z,12.50
2018-05-25T04:37:45.926Z,12.50
2018-05-25T04:40:13.459Z,12.50
2018-05-25T04:42:41.059Z,12.50
2018-05-25T04:45:08.616Z,12.60
2018-05-25T04:47:36.220Z,12.70
2018-05-25T04:50:03.762Z,12.80
2018-05-25T04:52:31.418Z,12.90
2018-05-25T04:54:58.958Z,12.90
2018-05-25T04:57:26.543Z,13.00
2018-05-25T04:59:54.183Z,13.10
2018-05-25T05:02:21.745Z,13.20
2018-05-25T05:04:49.335Z,13.20
2018-05-25T05:07:16.898Z,13.20
2018-05-25T05:09:44.530Z,13.30
2018-05-25T05:12:12.082Z,13.40
2018-05-25T05:14:39.665Z,13.50
2018-05-25T05:17:07.215Z,13.60
2018-05-25T05:19:34.789Z,13.70
2018-05-25T05:22:02.373Z,13.80
2018-05-25T05:24:29.955Z,13.90
2018-05-25T05:26:57.494Z,14.10
2018-05-25T05:29:25.044Z,14.10
2018-05-25T05:31:52.594Z,14.20
2018-05-25T05:34:20.188Z,14.30
2018-05-25T05:36:47.720Z,14.40
2018-05-25T05:39:15.303Z,14.50
2018-05-25T05:41:42.844Z,14.60
2018-05-25T05:44:10.390Z,14.70
2018-05-25T05:46:37.938Z,14.90
2018-05-25T05:49:05.564Z,14.90
2018-05-25T05:51:33.101Z,15.10
2018-05-25T05:54:00.695Z,15.20
2018-05-25T05:56:28.305Z,15.30
2018-05-25T05:58:55.934Z,15.40
2018-05-25T06:01:23.514Z,15.50
2018-05-25T06:03:51.075Z,15.60
2018-05-25T06:06:18.694Z,15.60
2018-05-25T06:08:46.655Z,15.80
2018-05-25T06:11:14.245Z,15.80
2018-05-25T06:13:41.832Z,15.90
2018-05-25T06:16:09.398Z,16.00
2018-05-25T06:18:36.979Z,16.20
2018-05-25T06:21:04.555Z,16.40
2018-05-25T06:23:32.092Z,16.50
2018-05-25T06:25:59.670Z,16.60
2018-05-25T06:28:27.271Z,16.70
2018-05-25T06:30:54.902Z,16.80
2018-05-25T06:33:22.514Z,16.90
2018-05-25T06:35:50.130Z,17.00
2018-05-25T06:38:17.664Z,17.10
2018-05-25T06:40:45.238Z,17.20
2018-05-25T06:43:12.778Z,17.30
2018-05-25T06:45:40.376Z,17.50
2018-05-25T06:48:07.967Z,17.70
2018-05-25T06:50:35.639Z,17.80
2018-05-25T06:53:03.191Z,18.00
2018-05-25T06:55:30.778Z,18.20
2018-05-25T06:57:58.423Z,18.40
2018-05-25T07:00:25.990Z,18.60
2018-05-25T07:02:53.551Z,18.80
2018-05-25T07:05:22.230Z,19.00
2018-05-25T07:07:50.207Z,19.60
2018-05-25T07:10:17.843Z,19.60
2018-05-25T07:12:45.373Z,19.90
2018-05-25T07:15:12.997Z,20.30
2018-05-25T07:17:41.017Z,20.70
2018-05-25T07:20:08.561Z,20.70
2018-05-25T07:22:36.143Z,21.00
2018-05-25T07:25:03.691Z,21.30
2018-05-25T07:27:31.265Z,21.70
2018-05-25T07:29:59.208Z,22.30
2018-05-25T07:32:26.795Z,22.30
2018-05-25T07:34:54.386Z,22.50
2018-05-25T07:37:22.006Z,22.40
2018-05-25T07:39:49.547Z,22.40
2018-05-25T07:42:17.134Z,22.60
2018-05-25T07:44:44.667Z,22.70
2018-05-25T07:47:12.321Z,23.00
2018-05-25T07:49:39.873Z,23.20
2018-05-25T07:52:07.451Z,23.60
2018-05-25T07:54:35.020Z,24.00
2018-05-25T07:57:02.645Z,24.10
2018-05-25T07:59:30.191Z,24.40
2018-05-25T08:01:57.768Z,24.40
2018-05-25T08:04:25.368Z,24.60
2018-05-25T08:06:52.999Z,24.90
2018-05-25T08:09:20.615Z,25.00
2018-05-25T08:11:48.194Z,25.30
2018-05-25T08:14:15.763Z,25.50
2018-05-25T08:16:43.359Z,25.70
2018-05-25T08:19:10.955Z,25.80
2018-05-25T08:21:38.551Z,26.00
2018-05-25T08:24:06.216Z,26.20
2018-05-25T08:26:33.788Z,26.40
2018-05-25T08:29:01.395Z,26.70
2018-05-25T08:31:28.957Z,27.00
2018-05-25T08:33:56.540Z,27.10
2018-05-25T08:36:24.115Z,27.10
2018-05-25T08:38:51.697Z,27.20
2018-05-25T08:41:19.311Z,27.40
2018-05-25T08:43:46.902Z,27.60
2018-05-25T08:46:14.506Z,28.00
2018-05-25T08:48:42.129Z,28.20
2018-05-25T08:51:09.713Z,28.50
2018-05-25T08:53:37.300Z,28.50
2018-05-25T08:56:04.835Z,28.30
2018-05-25T08:58:32.410Z,28.20
2018-05-25T09:00:59.976Z,28.50
2018-05-25T09:03:27.601Z,28.70
2018-05-25T09:05:55.150Z,28.90
2018-05-25T09:08:23.127Z,29.30
2018-05-25T09:10:50.650Z,29.30
2018-05-25T09:13:18.242Z,29.40
2018-05-25T09:15:45.815Z,29.30
2018-05-25T09:18:13.427Z,29.80
2018-05-25T09:20:41.045Z,29.50
2018-05-25T09:23:08.635Z,29.10
2018-05-25T09:25:36.178Z,29.00
2018-05-25T09:28:03.806Z,29.40
2018-05-25T09:30:31.389Z,29.80
2018-05-25T09:32:58.930Z,30.20
2018-05-25T09:35:26.498Z,30.40
2018-05-25T09:37:54.058Z,30.70
2018-05-25T09:40:21.638Z,31.10
2018-05-25T09:42:49.211Z,31.60
2018-05-25T09:45:16.802Z,30.80
2018-05-25T09:47:44.351Z,29.60
2018-05-25T09:50:11.949Z,29.10
2018-05-25T09:52:39.499Z,29.80
2018-05-25T09:55:07.090Z,30.70
2018-05-25T09:57:34.621Z,31.50
2018-05-25T10:00:02.213Z,31.60
2018-05-25T10:02:29.778Z,31.90
2018-05-25T10:04:57.410Z,32.20
2018-05-25T10:07:24.979Z,32.20
2018-05-25T10:09:52.567Z,32.10
2018-05-25T10:12:20.156Z,32.50
2018-05-25T10:14:47.750Z,32.50
2018-05-25T10:17:15.294Z,32.60
2018-05-25T10:19:42.893Z,32.80
2018-05-25T10:22:10.434Z,33.00
2018-05-25T10:24:37.977Z,33.50
2018-05-25T10:27:05.596Z,33.30
2018-05-25T10:29:33.519Z,33.20
2018-05-25T10:32:01.056Z,32.70
2018-05-25T10:34:28.626Z,33.00
2018-05-25T10:36:56.194Z,33.50
2018-05-25T10:39:23.770Z,33.90
2018-05-25T10:41:51.345Z,34.60
2018-05-25T10:44:19.304Z,34.10
2018-05-25T10:46:46.885Z,34.10
2018-05-25T10:49:14.829Z,32.20
2018-05-25T10:51:42.410Z,32.30
2018-05-25T10:54:10.342Z,31.50
2018-05-25T10:56:38.326Z,31.00
2018-05-25T10:59:05.942Z,31.10
2018-05-25T11:01:33.530Z,31.40
2018-05-25T11:04:01.470Z,31.50
2018-05-25T11:06:30.255Z,31.50
2018-05-25T11:08:57.885Z,31.00
2018-05-25T11:11:25.459Z,30.80
2018-05-25T11:13:53.038Z,30.80
2018-05-25T11:16:20.583Z,30.30
2018-05-25T11:18:48.119Z,30.50
2018-05-25T11:21:15.706Z,30.80
2018-05-25T11:23:43.286Z,30.60
2018-05-25T11:26:10.923Z,30.30
2018-05-25T11:28:38.547Z,30.10
2018-05-25T11:31:06.525Z,31.40
2018-05-25T11:33:34.109Z,31.40
2018-05-25T11:36:01.662Z,32.20
2018-05-25T11:38:29.226Z,32.70
2018-05-25T11:40:57.914Z,32.70
2018-05-25T11:43:25.488Z,32.20
2018-05-25T11:45:53.082Z,31.70
2018-05-25T11:48:20.662Z,31.10
2018-05-25T11:50:48.228Z,30.60
2018-05-25T11:53:15.822Z,30.70
2018-05-25T11:55:43.391Z,31.00
2018-05-25T11:58:10.942Z,31.30
2018-05-25T12:00:56.235Z,31.30
2018-05-25T12:03:24.214Z,30.70
2018-05-25T12:05:52.143Z,30.90
2018-05-25T12:08:19.731Z,30.90
2018-05-25T12:10:47.307Z,31.30
2018-05-25T12:13:14.868Z,32.00
2018-05-25T12:15:42.450Z,32.50
2018-05-25T12:18:10.054Z,32.90
2018-05-25T12:20:37.626Z,33.30
2018-05-25T12:23:05.221Z,32.70
2018-05-25T12:25:32.810Z,32.30
2018-05-25T12:28:00.402Z,32.30
2018-05-25T12:30:27.950Z,32.60
2018-05-25T12:32:55.590Z,32.90
2018-05-25T12:35:23.143Z,33.20
2018-05-25T12:37:50.727Z,33.60
2018-05-25T12:40:18.290Z,33.30
2018-05-25T12:42:45.900Z,32.80
2018-05-25T12:45:13.506Z,32.40
2018-05-25T12:47:41.097Z,32.50
2018-05-25T12:50:08.667Z,32.70
2018-05-25T12:52:36.258Z,33.00
2018-05-25T12:55:03.822Z,33.30
2018-05-25T12:57:31.417Z,33.40
2018-05-25T12:59:58.972Z,33.90
2018-05-25T13:02:26.555Z,34.30
2018-05-25T13:04:54.178Z,34.00
2018-05-25T13:07:21.733Z,33.60
2018-05-25T13:09:49.358Z,33.20
2018-05-25T13:12:16.987Z,32.10
2018-05-25T13:14:44.562Z,31.70
2018-05-25T13:17:12.133Z,31.60
2018-05-25T13:19:41.651Z,31.80
2018-05-25T13:22:09.212Z,32.90
2018-05-25T13:24:36.811Z,34.30
2018-05-25T13:27:04.387Z,35.10
2018-05-25T13:29:31.985Z,34.10
2018-05-25T13:31:59.551Z,33.30
2018-05-25T13:34:27.127Z,33.20
2018-05-25T13:36:54.690Z,34.20
2018-05-25T13:39:22.278Z,35.50
2018-05-25T13:41:49.864Z,36.80
2018-05-25T13:44:17.495Z,38.20
2018-05-25T13:46:45.051Z,39.40
2018-05-25T13:49:13.084Z,40.30
2018-05-25T13:51:40.654Z,40.70
2018-05-25T13:54:08.223Z,41.50
2018-05-25T13:56:35.830Z,42.20
2018-05-25T13:59:17.730Z,41.80
2018-05-25T14:01:45.271Z,40.70
2018-05-25T14:04:12.839Z,40.90
2018-05-25T14:06:40.382Z,41.50
2018-05-25T14:09:07.982Z,42.20
2018-05-25T14:11:35.619Z,43.10
2018-05-25T14:14:03.266Z,43.40
2018-05-25T14:16:30.833Z,44.00
2018-05-25T14:18:58.408Z,44.00
2018-05-25T14:21:25.939Z,43.30
2018-05-25T14:23:53.510Z,41.20
2018-05-25T14:26:21.139Z,41.10
2018-05-25T14:28:48.749Z,42.40
2018-05-25T14:31:16.347Z,43.90
2018-05-25T14:33:43.983Z,45.20
2018-05-25T14:36:11.595Z,45.20
2018-05-25T14:38:39.166Z,44.80
2018-05-25T14:41:13.859Z,45.10
2018-05-25T14:43:41.425Z,44.80
2018-05-25T14:46:09.036Z,43.20
2018-05-25T14:48:36.577Z,41.60
2018-05-25T14:51:04.207Z,41.40
2018-05-25T14:53:31.770Z,42.10
2018-05-25T14:55:59.348Z,43.00
2018-05-25T14:58:26.930Z,43.60
2018-05-25T15:00:54.551Z,44.20
2018-05-25T15:03:22.118Z,44.50
2018-05-25T15:05:49.664Z,44.30
2018-05-25T15:08:17.215Z,44.50
2018-05-25T15:10:44.835Z,45.00
2018-05-25T15:13:12.362Z,45.40
2018-05-25T15:15:39.919Z,45.60
2018-05-25T15:18:07.469Z,45.60
2018-05-25T15:20:35.010Z,45.80
2018-05-25T15:23:02.541Z,46.20
2018-05-25T15:25:30.128Z,46.80
2018-05-25T15:27:57.674Z,47.10
2018-05-25T15:30:25.218Z,47.40
2018-05-25T15:32:52.806Z,47.00
2018-05-25T15:35:20.421Z,47.10
2018-05-25T15:37:48.000Z,47.80
2018-05-25T15:40:15.606Z,48.00
2018-05-25T15:42:43.193Z,48.30
2018-05-25T15:45:10.763Z,48.50
2018-05-25T15:47:38.726Z,47.10
2018-05-25T15:50:06.322Z,47.10
2018-05-25T15:52:33.930Z,47.50
2018-05-25T15:55:01.674Z,47.50
2018-05-25T15:57:29.300Z,48.10
2018-05-25T15:59:56.857Z,48.30
2018-05-25T16:02:24.442Z,48.40
2018-05-25T16:04:51.990Z,48.60
2018-05-25T16:07:19.833Z,48.10
2018-05-25T16:10:04.380Z,48.50
2018-05-25T16:12:32.101Z,48.50
2018-05-25T16:14:59.672Z,48.30
2018-05-25T16:17:27.262Z,48.60
2018-05-25T16:19:54.897Z,48.60
2018-05-25T16:22:22.510Z,48.10
2018-05-25T16:24:50.099Z,47.80
2018-05-25T16:27:17.654Z,47.60
2018-05-25T16:29:45.218Z,47.80
2018-05-25T16:32:13.303Z,47.70
2018-05-25T16:34:40.932Z,47.40
2018-05-25T16:37:08.523Z,46.90
2018-05-25T16:39:36.506Z,46.50
2018-05-25T16:42:04.095Z,46.50
2018-05-25T16:44:31.620Z,46.50
2018-05-25T16:46:59.258Z,46.30
2018-05-25T16:49:26.838Z,46.50
2018-05-25T16:51:54.422Z,46.40
2018-05-25T16:54:22.007Z,46.00
2018-05-25T16:56:49.631Z,45.90
2018-05-25T16:59:17.264Z,45.80
2018-05-25T17:01:44.839Z,45.80
2018-05-25T17:04:12.446Z,45.70
2018-05-25T17:06:39.984Z,45.70
2018-05-25T17:09:07.588Z,45.60
2018-05-25T17:11:35.147Z,45.20
2018-05-25T17:14:02.715Z,44.80
2018-05-25T17:16:30.254Z,44.80
2018-05-25T17:18:57.875Z,44.40
2018-05-25T17:21:25.447Z,43.60
2018-05-25T17:23:53.014Z,42.80
2018-05-25T17:26:20.546Z,42.10
2018-05-25T17:28:48.344Z,41.60
2018-05-25T17:31:15.913Z,41.20
2018-05-25T17:33:43.508Z,41.00
2018-05-25T17:36:11.190Z,40.70
2018-05-25T17:38:39.122Z,38.50
2018-05-25T17:41:06.751Z,38.50
2018-05-25T17:43:34.389Z,37.40
2018-05-25T17:46:01.951Z,36.50
2018-05-25T17:48:29.547Z,35.90
2018-05-25T17:50:57.114Z,35.50
2018-05-25T17:53:25.054Z,34.70
2018-05-25T17:55:52.675Z,34.70
2018-05-25T17:58:20.961Z,34.70
2018-05-25T18:00:48.586Z,34.80
2018-05-25T18:03:16.425Z,34.80
2018-05-25T18:05:43.975Z,34.70
2018-05-25T18:08:11.570Z,34.50
2018-05-25T18:10:39.208Z,33.90
2018-05-25T18:13:06.755Z,33.30
2018-05-25T18:15:49.367Z,32.70
2018-05-25T18:18:16.947Z,32.20
2018-05-25T18:20:45.069Z,30.70
2018-05-25T18:23:12.721Z,30.70
2018-05-25T18:25:40.250Z,30.00
2018-05-25T18:28:07.790Z,29.40
2018-05-25T18:30:35.395Z,28.60
2018-05-25T18:33:02.962Z,27.80
2018-05-25T18:35:30.534Z,27.10
2018-05-25T18:37:58.090Z,26.60
2018-05-25T18:40:25.938Z,26.20
2018-05-25T18:42:57.608Z,25.80
2018-05-25T18:45:25.207Z,25.50
2018-05-25T18:47:52.760Z,25.10
2018-05-25T18:50:20.368Z,24.80
2018-05-25T18:52:47.909Z,24.50
2018-05-25T18:55:15.536Z,24.30
2018-05-25T18:57:43.171Z,24.20
2018-05-25T19:00:10.772Z,24.10
2018-05-25T19:02:38.334Z,24.10
2018-05-25T19:05:05.971Z,24.00
2018-05-25T19:07:33.963Z,23.90
2018-05-25T19:10:01.511Z,23.90
2018-05-25T19:12:29.523Z,23.80
2018-05-25T19:14:57.082Z,23.80
2018-05-25T19:17:24.623Z,23.70
2018-05-25T19:19:52.304Z,23.40
2018-05-25T19:22:19.809Z,23.20
2018-05-25T19:24:47.404Z,22.90
2018-05-25T19:27:14.991Z,22.70
2018-05-25T19:29:42.545Z,22.40
2018-05-25T19:32:10.139Z,22.10
2018-05-25T19:34:37.711Z,22.00
2018-05-25T19:37:05.329Z,21.80
2018-05-25T19:39:32.908Z,21.70
2018-05-25T19:42:00.877Z,21.50
2018-05-25T19:44:28.491Z,21.50
2018-05-25T19:46:56.054Z,21.40
2018-05-25T19:49:23.590Z,21.30
2018-05-25T19:51:51.157Z,21.20
2018-05-25T19:54:18.703Z,21.20
2018-05-25T19:56:46.278Z,21.00
2018-05-25T19:59:13.827Z,20.90
2018-05-25T20:01:41.411Z,20.90
2018-05-25T20:04:08.963Z,20.80
2018-05-25T20:06:36.543Z,20.80
2018-05-25T20:09:04.078Z,20.60
2018-05-25T20:11:31.662Z,20.50
2018-05-25T20:13:59.223Z,20.40
2018-05-25T20:16:26.849Z,20.30
2018-05-25T20:18:54.423Z,20.20
2018-05-25T20:21:22.044Z,20.20
2018-05-25T20:23:49.578Z,20.00
2018-05-25T20:26:17.157Z,19.90
2018-05-25T20:28:44.777Z,19.80
2018-05-25T20:31:12.380Z,19.70
2018-05-25T20:33:39.967Z,19.60
2018-05-25T20:36:07.526Z,19.50
2018-05-25T20:38:35.094Z,19.40
2018-05-25T20:41:02.667Z,19.30
2018-05-25T20:43:30.253Z,19.30
2018-05-25T20:45:57.823Z,19.20
2018-05-25T20:48:25.408Z,19.10
2018-05-25T20:50:53.055Z,19.00
2018-05-25T20:53:20.683Z,18.80
2018-05-25T20:55:48.218Z,18.70
2018-05-25T20:58:15.774Z,18.70
2018-05-25T21:00:43.347Z,18.60
2018-05-25T21:03:10.942Z,18.60
2018-05-25T21:05:38.539Z,18.50
2018-05-25T21:08:06.113Z,18.50
2018-05-25T21:10:33.754Z,18.40
2018-05-25T21:13:01.372Z,18.40
2018-05-25T21:15:28.978Z,18.40
2018-05-25T21:17:56.640Z,18.30
2018-05-25T21:20:24.194Z,18.20
2018-05-25T21:22:51.810Z,18.00
2018-05-25T21:25:19.437Z,18.00
2018-05-25T21:27:47.042Z,17.90
2018-05-25T21:30:14.591Z,17.80
2018-05-25T21:32:42.205Z,17.80
2018-05-25T21:35:09.756Z,17.70
2018-05-25T21:37:37.388Z,17.70
2018-05-25T21:40:04.942Z,17.60
2018-05-25T21:42:32.615Z,17.60
2018-05-25T21:45:00.187Z,17.40
2018-05-25T21:47:27.791Z,17.40
2018-05-25T21:49:55.412Z,17.30
2018-05-25T21:52:22.981Z,17.20
2018-05-25T21:54:50.562Z,17.10
2018-05-25T21:57:18.134Z,17.10
2018-05-25T21:59:45.767Z,17.10
2018-05-25T22:02:13.331Z,17.00
2018-05-25T22:04:41.313Z,17.00
2018-05-25T22:07:08.889Z,17.00
2018-05-25T22:09:36.705Z,17.10
2018-05-25T22:12:04.245Z,17.00
2018-05-25T22:14:31.834Z,17.00
2018-05-25T22:16:59.387Z,17.00
2018-05-25T22:19:26.975Z,16.90
2018-05-25T22:21:54.556Z,16.90
2018-05-25T22:24:22.106Z,16.80
2018-05-25T22:26:49.700Z,16.80
2018-05-25T22:29:17.318Z,16.70
2018-05-25T22:31:44.903Z,16.70
2018-05-25T22:34:12.469Z,16.60
2018-05-25T22:36:40.043Z,16.50
2018-05-25T22:39:07.607Z,16.50
2018-05-25T22:41:35.220Z,16.50
2018-05-25T22:44:14.530Z,16.50
2018-05-25T22:46:53.810Z,16.40
2018-05-25T22:49:33.003Z,16.20
2018-05-25T22:52:12.286Z,16.20
2018-05-25T22:54:42.660Z,16.10
2018-05-25T22:57:10.258Z,16.10
2018-05-25T22:59:37.901Z,16.10
2018-05-25T23:02:05.580Z,16.00
2018-05-25T23:04:33.226Z,16.00
2018-05-25T23:07:00.783Z,16.00
2018-05-25T23:09:28.416Z,15.90
2018-05-25T23:11:55.974Z,15.90
2018-05-25T23:14:23.564Z,15.90
2018-05-25T23:16:51.186Z,15.90
2018-05-25T23:19:20.854Z,15.90
2018-05-25T23:21:48.427Z,15.90
2018-05-25T23:24:16.026Z,15.90
2018-05-25T23:26:43.601Z,16.00
2018-05-25T23:29:11.187Z,15.90
2018-05-25T23:31:38.807Z,15.80
2018-05-25T23:34:06.386Z,15.70
2018-05-25T23:36:33.943Z,15.60
2018-05-25T23:39:01.532Z,15.60
2018-05-25T23:41:29.503Z,15.80
2018-05-25T23:43:57.100Z,15.80
2018-05-25T23:46:24.686Z,15.70
2018-05-25T23:48:52.301Z,15.60
2018-05-25T23:51:20.253Z,15.30
2018-05-25T23:53:47.797Z,15.30
2018-05-25T23:56:15.403Z,15.30
2018-05-25T23:58:42.950Z,15.30
